sensor_id;sensor_type;location;lat;lon;timestamp;P1;durP1;ratioP1;P2;durP2;ratioP2
29242;SDS011;21110;48.036;15.780;2023-02-08T00:01:16;3.60;;;3.40;;
29242;SDS011;21110;48.036;15.780;2023-02-08T00:03:43;3.92;;;3.63;;
29242;SDS011;21110;48.036;15.780;2023-02-08T00:06:10;3.20;;;3.00;;
29242;SDS011;21110;48.036;15.780;2023-02-08T00:08:36;3.58;;;3.38;;
29242;SDS011;21110;48.036;15.780;2023-02-08T00:11:03;3.38;;;3.17;;
29242;SDS011;21110;48.036;15.780;2023-02-08T00:13:30;3.30;;;3.10;;
29242;SDS011;21110;48.036;15.780;2023-02-08T00:15:56;3.17;;;2.97;;
29242;SDS011;21110;48.036;15.780;2023-02-08T00:18:22;3.60;;;3.30;;
29242;SDS011;21110;48.036;15.780;2023-02-08T00:20:47;3.47;;;3.20;;
29242;SDS011;21110;48.036;15.780;2023-02-08T00:23:13;3.40;;;3.20;;
29242;SDS011;21110;48.036;15.780;2023-02-08T00:25:40;3.38;;;3.15;;
29242;SDS011;21110;48.036;15.780;2023-02-08T00:28:06;3.38;;;3.17;;
29242;SDS011;21110;48.036;15.780;2023-02-08T00:30:35;3.47;;;3.20;;
29242;SDS011;21110;48.036;15.780;2023-02-08T00:33:01;3.40;;;3.20;;
29242;SDS011;21110;48.036;15.780;2023-02-08T00:35:27;3.58;;;3.28;;
29242;SDS011;21110;48.036;15.780;2023-02-08T00:37:53;3.30;;;3.10;;
29242;SDS011;21110;48.036;15.780;2023-02-08T00:40:19;3.40;;;3.20;;
29242;SDS011;21110;48.036;15.780;2023-02-08T00:42:44;3.25;;;3.05;;
29242;SDS011;21110;48.036;15.780;2023-02-08T00:45:10;3.67;;;3.38;;
29242;SDS011;21110;48.036;15.780;2023-02-08T00:47:36;3.40;;;3.20;;
29242;SDS011;21110;48.036;15.780;2023-02-08T00:50:01;3.85;;;3.55;;
29242;SDS011;21110;48.036;15.780;2023-02-08T00:52:28;3.33;;;3.08;;
29242;SDS011;21110;48.036;15.780;2023-02-08T00:54:54;3.30;;;3.10;;
29242;SDS011;21110;48.036;15.780;2023-02-08T00:57:20;3.50;;;3.20;;
29242;SDS011;21110;48.036;15.780;2023-02-08T00:59:45;3.40;;;3.20;;
29242;SDS011;21110;48.036;15.780;2023-02-08T01:02:11;3.58;;;3.30;;
29242;SDS011;21110;48.036;15.780;2023-02-08T01:04:37;3.42;;;3.13;;
29242;SDS011;21110;48.036;15.780;2023-02-08T01:07:03;3.47;;;3.20;;
29242;SDS011;21110;48.036;15.780;2023-02-08T01:09:29;3.15;;;2.95;;
29242;SDS011;21110;48.036;15.780;2023-02-08T01:11:56;3.35;;;3.15;;
29242;SDS011;21110;48.036;15.780;2023-02-08T01:14:21;3.45;;;3.25;;
29242;SDS011;21110;48.036;15.780;2023-02-08T01:16:47;3.80;;;3.50;;
29242;SDS011;21110;48.036;15.780;2023-02-08T01:19:13;3.17;;;2.97;;
29242;SDS011;21110;48.036;15.780;2023-02-08T01:21:40;3.03;;;2.83;;
29242;SDS011;21110;48.036;15.780;2023-02-08T01:24:07;3.45;;;3.25;;
29242;SDS011;21110;48.036;15.780;2023-02-08T01:26:33;3.80;;;3.50;;
29242;SDS011;21110;48.036;15.780;2023-02-08T01:28:59;3.47;;;3.28;;
29242;SDS011;21110;48.036;15.780;2023-02-08T01:31:35;3.20;;;2.90;;
29242;SDS011;21110;48.036;15.780;2023-02-08T01:34:02;3.60;;;3.30;;
29242;SDS011;21110;48.036;15.780;2023-02-08T01:36:29;3.58;;;3.28;;
29242;SDS011;21110;48.036;15.780;2023-02-08T01:38:56;3.10;;;2.90;;
29242;SDS011;21110;48.036;15.780;2023-02-08T01:41:26;3.20;;;3.00;;
29242;SDS011;21110;48.036;15.780;2023-02-08T01:44:05;3.67;;;3.38;;
29242;SDS011;21110;48.036;15.780;2023-02-08T01:46:36;3.45;;;3.25;;
29242;SDS011;21110;48.036;15.780;2023-02-08T01:49:05;3.20;;;3.00;;
29242;SDS011;21110;48.036;15.780;2023-02-08T01:54:23;3.22;;;3.03;;
29242;SDS011;21110;48.036;15.780;2023-02-08T01:56:51;3.40;;;3.10;;
29242;SDS011;21110;48.036;15.780;2023-02-08T01:59:19;3.60;;;3.30;;
29242;SDS011;21110;48.036;15.780;2023-02-08T02:01:50;3.33;;;3.03;;
29242;SDS011;21110;48.036;15.780;2023-02-08T02:04:18;3.70;;;3.40;;
29242;SDS011;21110;48.036;15.780;2023-02-08T02:06:45;3.45;;;3.15;;
29242;SDS011;21110;48.036;15.780;2023-02-08T02:12:00;3.67;;;3.38;;
29242;SDS011;21110;48.036;15.780;2023-02-08T02:14:26;3.00;;;2.80;;
29242;SDS011;21110;48.036;15.780;2023-02-08T02:16:52;3.20;;;3.00;;
29242;SDS011;21110;48.036;15.780;2023-02-08T02:19:32;3.10;;;2.90;;
29242;SDS011;21110;48.036;15.780;2023-02-08T02:25:00;3.40;;;3.20;;
29242;SDS011;21110;48.036;15.780;2023-02-08T02:44:53;3.55;;;3.25;;
29242;SDS011;21110;48.036;15.780;2023-02-08T02:50:01;3.38;;;3.15;;
29242;SDS011;21110;48.036;15.780;2023-02-08T02:52:45;3.40;;;3.10;;
29242;SDS011;21110;48.036;15.780;2023-02-08T02:55:19;3.30;;;3.10;;
29242;SDS011;21110;48.036;15.780;2023-02-08T02:57:48;3.00;;;2.80;;
29242;SDS011;21110;48.036;15.780;2023-02-08T03:00:20;3.40;;;3.20;;
29242;SDS011;21110;48.036;15.780;2023-02-08T03:02:48;3.05;;;2.85;;
29242;SDS011;21110;48.036;15.780;2023-02-08T03:05:14;3.10;;;2.90;;
29242;SDS011;21110;48.036;15.780;2023-02-08T03:21:08;3.00;;;2.80;;
29242;SDS011;21110;48.036;15.780;2023-02-08T03:23:37;3.20;;;2.97;;
29242;SDS011;21110;48.036;15.780;2023-02-08T03:34:12;3.45;;;3.22;;
29242;SDS011;21110;48.036;15.780;2023-02-08T03:36:56;3.33;;;3.13;;
29242;SDS011;21110;48.036;15.780;2023-02-08T03:39:26;3.25;;;3.05;;
29242;SDS011;21110;48.036;15.780;2023-02-08T03:41:55;3.80;;;3.10;;
29242;SDS011;21110;48.036;15.780;2023-02-08T03:46:55;3.42;;;3.13;;
29242;SDS011;21110;48.036;15.780;2023-02-08T03:49:26;3.30;;;3.10;;
29242;SDS011;21110;48.036;15.780;2023-02-08T03:51:58;3.03;;;2.83;;
29242;SDS011;21110;48.036;15.780;2023-02-08T03:54:27;3.63;;;3.33;;
29242;SDS011;21110;48.036;15.780;2023-02-08T03:59:34;3.38;;;3.17;;
29242;SDS011;21110;48.036;15.780;2023-02-08T04:02:04;3.30;;;3.10;;
29242;SDS011;21110;48.036;15.780;2023-02-08T04:04:34;3.42;;;3.22;;
29242;SDS011;21110;48.036;15.780;2023-02-08T04:07:03;3.50;;;3.30;;
29242;SDS011;21110;48.036;15.780;2023-02-08T04:09:29;3.20;;;3.00;;
29242;SDS011;21110;48.036;15.780;2023-02-08T04:11:55;3.25;;;3.05;;
29242;SDS011;21110;48.036;15.780;2023-02-08T04:14:20;3.40;;;3.10;;
29242;SDS011;21110;48.036;15.780;2023-02-08T04:16:46;3.63;;;3.42;;
29242;SDS011;21110;48.036;15.780;2023-02-08T04:19:11;3.55;;;3.35;;
29242;SDS011;21110;48.036;15.780;2023-02-08T04:21:37;3.17;;;2.97;;
29242;SDS011;21110;48.036;15.780;2023-02-08T04:24:03;3.50;;;3.20;;
29242;SDS011;21110;48.036;15.780;2023-02-08T04:26:28;3.50;;;3.20;;
29242;SDS011;21110;48.036;15.780;2023-02-08T04:28:54;3.10;;;2.90;;
29242;SDS011;21110;48.036;15.780;2023-02-08T04:31:19;3.30;;;3.10;;
29242;SDS011;21110;48.036;15.780;2023-02-08T04:33:45;3.42;;;3.22;;
29242;SDS011;21110;48.036;15.780;2023-02-08T04:36:11;3.60;;;3.30;;
29242;SDS011;21110;48.036;15.780;2023-02-08T04:38:36;3.45;;;3.22;;
29242;SDS011;21110;48.036;15.780;2023-02-08T04:41:02;3.20;;;3.00;;
29242;SDS011;21110;48.036;15.780;2023-02-08T04:43:28;3.20;;;3.00;;
29242;SDS011;21110;48.036;15.780;2023-02-08T04:45:53;3.25;;;3.05;;
29242;SDS011;21110;48.036;15.780;2023-02-08T04:48:19;3.30;;;3.10;;
29242;SDS011;21110;48.036;15.780;2023-02-08T04:50:45;3.10;;;2.90;;
29242;SDS011;21110;48.036;15.780;2023-02-08T04:53:10;3.20;;;3.00;;
29242;SDS011;21110;48.036;15.780;2023-02-08T04:55:36;3.40;;;3.20;;
29242;SDS011;21110;48.036;15.780;2023-02-08T04:58:02;3.28;;;3.08;;
29242;SDS011;21110;48.036;15.780;2023-02-08T05:00:28;3.45;;;3.20;;
29242;SDS011;21110;48.036;15.780;2023-02-08T05:02:54;3.25;;;3.05;;
29242;SDS011;21110;48.036;15.780;2023-02-08T05:05:21;3.58;;;3.22;;
29242;SDS011;21110;48.036;15.780;2023-02-08T05:07:47;3.47;;;3.25;;
29242;SDS011;21110;48.036;15.780;2023-02-08T05:10:13;3.15;;;2.95;;
29242;SDS011;21110;48.036;15.780;2023-02-08T05:12:39;3.50;;;3.20;;
29242;SDS011;21110;48.036;15.780;2023-02-08T05:15:05;3.40;;;3.20;;
29242;SDS011;21110;48.036;15.780;2023-02-08T05:17:30;3.30;;;3.10;;
29242;SDS011;21110;48.036;15.780;2023-02-08T05:19:56;3.25;;;3.05;;
29242;SDS011;21110;48.036;15.780;2023-02-08T05:22:22;3.28;;;3.08;;
29242;SDS011;21110;48.036;15.780;2023-02-08T05:24:47;3.30;;;3.10;;
29242;SDS011;21110;48.036;15.780;2023-02-08T05:27:13;3.42;;;3.20;;
29242;SDS011;21110;48.036;15.780;2023-02-08T05:29:38;3.40;;;3.20;;
29242;SDS011;21110;48.036;15.780;2023-02-08T05:32:04;3.60;;;3.30;;
29242;SDS011;21110;48.036;15.780;2023-02-08T05:34:30;3.50;;;3.30;;
29242;SDS011;21110;48.036;15.780;2023-02-08T05:36:56;3.35;;;3.15;;
29242;SDS011;21110;48.036;15.780;2023-02-08T05:39:21;3.40;;;3.20;;
29242;SDS011;21110;48.036;15.780;2023-02-08T05:41:47;3.42;;;3.22;;
29242;SDS011;21110;48.036;15.780;2023-02-08T05:44:12;3.15;;;2.95;;
29242;SDS011;21110;48.036;15.780;2023-02-08T05:46:38;3.30;;;3.10;;
29242;SDS011;21110;48.036;15.780;2023-02-08T05:49:04;3.47;;;3.20;;
29242;SDS011;21110;48.036;15.780;2023-02-08T05:51:29;3.60;;;3.30;;
29242;SDS011;21110;48.036;15.780;2023-02-08T05:53:55;3.65;;;3.40;;
29242;SDS011;21110;48.036;15.780;2023-02-08T05:56:21;3.50;;;3.30;;
29242;SDS011;21110;48.036;15.780;2023-02-08T05:58:46;3.58;;;3.28;;
29242;SDS011;21110;48.036;15.780;2023-02-08T06:01:12;3.60;;;3.40;;
29242;SDS011;21110;48.036;15.780;2023-02-08T06:03:38;3.25;;;3.05;;
29242;SDS011;21110;48.036;15.780;2023-02-08T06:06:04;3.42;;;3.22;;
29242;SDS011;21110;48.036;15.780;2023-02-08T06:08:30;3.40;;;3.20;;
29242;SDS011;21110;48.036;15.780;2023-02-08T06:10:56;3.90;;;3.50;;
29242;SDS011;21110;48.036;15.780;2023-02-08T06:13:22;3.85;;;3.55;;
29242;SDS011;21110;48.036;15.780;2023-02-08T06:15:47;4.47;;;4.18;;
29242;SDS011;21110;48.036;15.780;2023-02-08T06:18:13;3.90;;;3.70;;
29242;SDS011;21110;48.036;15.780;2023-02-08T06:20:39;4.20;;;3.90;;
29242;SDS011;21110;48.036;15.780;2023-02-08T06:23:05;4.38;;;4.07;;
29242;SDS011;21110;48.036;15.780;2023-02-08T06:25:31;4.18;;;3.90;;
29242;SDS011;21110;48.036;15.780;2023-02-08T06:27:56;4.60;;;4.30;;
29242;SDS011;21110;48.036;15.780;2023-02-08T06:30:22;3.92;;;3.72;;
29242;SDS011;21110;48.036;15.780;2023-02-08T06:32:47;4.07;;;3.70;;
29242;SDS011;21110;48.036;15.780;2023-02-08T06:35:13;4.10;;;3.80;;
29242;SDS011;21110;48.036;15.780;2023-02-08T06:37:39;4.10;;;3.80;;
29242;SDS011;21110;48.036;15.780;2023-02-08T06:40:05;4.05;;;3.75;;
29242;SDS011;21110;48.036;15.780;2023-02-08T06:42:31;4.45;;;4.10;;
29242;SDS011;21110;48.036;15.780;2023-02-08T06:44:57;4.20;;;3.90;;
29242;SDS011;21110;48.036;15.780;2023-02-08T06:47:24;3.97;;;3.60;;
29242;SDS011;21110;48.036;15.780;2023-02-08T06:49:50;4.25;;;3.95;;
29242;SDS011;21110;48.036;15.780;2023-02-08T06:52:17;3.92;;;3.67;;
29242;SDS011;21110;48.036;15.780;2023-02-08T06:54:43;3.60;;;3.40;;
29242;SDS011;21110;48.036;15.780;2023-02-08T06:57:08;3.90;;;3.70;;
29242;SDS011;21110;48.036;15.780;2023-02-08T06:59:37;3.95;;;3.67;;
29242;SDS011;21110;48.036;15.780;2023-02-08T07:02:03;3.90;;;3.60;;
29242;SDS011;21110;48.036;15.780;2023-02-08T07:04:29;4.00;;;3.70;;
29242;SDS011;21110;48.036;15.780;2023-02-08T07:06:55;4.00;;;3.70;;
29242;SDS011;21110;48.036;15.780;2023-02-08T07:09:20;3.92;;;3.72;;
29242;SDS011;21110;48.036;15.780;2023-02-08T07:11:46;4.10;;;3.80;;
29242;SDS011;21110;48.036;15.780;2023-02-08T07:14:12;4.30;;;3.90;;
29242;SDS011;21110;48.036;15.780;2023-02-08T07:16:38;4.32;;;4.00;;
29242;SDS011;21110;48.036;15.780;2023-02-08T07:19:05;3.80;;;3.50;;
29242;SDS011;21110;48.036;15.780;2023-02-08T07:21:30;4.20;;;3.90;;
29242;SDS011;21110;48.036;15.780;2023-02-08T07:23:56;4.32;;;4.03;;
29242;SDS011;21110;48.036;15.780;2023-02-08T07:26:22;4.53;;;4.13;;
29242;SDS011;21110;48.036;15.780;2023-02-08T07:28:47;4.15;;;3.75;;
29242;SDS011;21110;48.036;15.780;2023-02-08T07:31:13;3.72;;;3.53;;
29242;SDS011;21110;48.036;15.780;2023-02-08T07:33:41;3.97;;;3.67;;
29242;SDS011;21110;48.036;15.780;2023-02-08T07:36:07;3.90;;;3.70;;
29242;SDS011;21110;48.036;15.780;2023-02-08T07:38:34;4.25;;;3.95;;
29242;SDS011;21110;48.036;15.780;2023-02-08T07:41:01;3.70;;;3.50;;
29242;SDS011;21110;48.036;15.780;2023-02-08T07:43:29;4.00;;;3.70;;
29242;SDS011;21110;48.036;15.780;2023-02-08T07:45:55;3.63;;;3.42;;
29242;SDS011;21110;48.036;15.780;2023-02-08T07:48:21;3.63;;;3.42;;
29242;SDS011;21110;48.036;15.780;2023-02-08T07:50:46;3.50;;;3.30;;
29242;SDS011;21110;48.036;15.780;2023-02-08T07:53:12;4.20;;;3.90;;
29242;SDS011;21110;48.036;15.780;2023-02-08T07:55:38;4.90;;;4.45;;
29242;SDS011;21110;48.036;15.780;2023-02-08T07:58:03;12.73;;;5.30;;
29242;SDS011;21110;48.036;15.780;2023-02-08T08:00:29;10.18;;;4.80;;
29242;SDS011;21110;48.036;15.780;2023-02-08T08:02:55;5.78;;;4.45;;
29242;SDS011;21110;48.036;15.780;2023-02-08T08:05:20;7.65;;;4.15;;
29242;SDS011;21110;48.036;15.780;2023-02-08T08:07:47;5.30;;;4.30;;
29242;SDS011;21110;48.036;15.780;2023-02-08T08:10:13;6.32;;;4.35;;
29242;SDS011;21110;48.036;15.780;2023-02-08T08:12:38;4.47;;;4.05;;
29242;SDS011;21110;48.036;15.780;2023-02-08T08:15:04;5.10;;;4.60;;
29242;SDS011;21110;48.036;15.780;2023-02-08T08:17:34;5.38;;;4.50;;
29242;SDS011;21110;48.036;15.780;2023-02-08T08:20:00;7.57;;;4.10;;
29242;SDS011;21110;48.036;15.780;2023-02-08T08:22:26;7.70;;;4.10;;
29242;SDS011;21110;48.036;15.780;2023-02-08T08:24:51;5.60;;;4.10;;
29242;SDS011;21110;48.036;15.780;2023-02-08T08:27:17;7.93;;;3.90;;
29242;SDS011;21110;48.036;15.780;2023-02-08T08:29:43;6.35;;;4.50;;
29242;SDS011;21110;48.036;15.780;2023-02-08T08:32:08;4.20;;;3.90;;
29242;SDS011;21110;48.036;15.780;2023-02-08T08:34:34;4.28;;;3.90;;
29242;SDS011;21110;48.036;15.780;2023-02-08T08:37:00;4.35;;;3.95;;
29242;SDS011;21110;48.036;15.780;2023-02-08T08:39:26;4.40;;;4.00;;
29242;SDS011;21110;48.036;15.780;2023-02-08T08:42:01;4.28;;;3.90;;
29242;SDS011;21110;48.036;15.780;2023-02-08T08:44:30;4.15;;;3.75;;
29242;SDS011;21110;48.036;15.780;2023-02-08T08:46:56;4.38;;;4.00;;
29242;SDS011;21110;48.036;15.780;2023-02-08T08:49:23;4.25;;;3.95;;
29242;SDS011;21110;48.036;15.780;2023-02-08T08:51:49;4.00;;;3.70;;
29242;SDS011;21110;48.036;15.780;2023-02-08T08:54:15;5.75;;;4.07;;
29242;SDS011;21110;48.036;15.780;2023-02-08T08:56:41;4.25;;;3.90;;
29242;SDS011;21110;48.036;15.780;2023-02-08T08:59:07;4.53;;;4.13;;
29242;SDS011;21110;48.036;15.780;2023-02-08T09:01:32;5.32;;;3.90;;
29242;SDS011;21110;48.036;15.780;2023-02-08T09:03:58;4.15;;;3.85;;
29242;SDS011;21110;48.036;15.780;2023-02-08T09:06:24;4.10;;;3.75;;
29242;SDS011;21110;48.036;15.780;2023-02-08T09:08:49;4.30;;;3.72;;
29242;SDS011;21110;48.036;15.780;2023-02-08T09:11:15;4.13;;;3.83;;
29242;SDS011;21110;48.036;15.780;2023-02-08T09:13:41;4.10;;;3.80;;
29242;SDS011;21110;48.036;15.780;2023-02-08T09:16:08;4.32;;;3.70;;
29242;SDS011;21110;48.036;15.780;2023-02-08T09:18:36;4.07;;;3.70;;
29242;SDS011;21110;48.036;15.780;2023-02-08T09:21:09;4.53;;;4.13;;
29242;SDS011;21110;48.036;15.780;2023-02-08T09:23:36;4.25;;;3.88;;
29242;SDS011;21110;48.036;15.780;2023-02-08T09:26:02;4.28;;;3.90;;
29242;SDS011;21110;48.036;15.780;2023-02-08T09:28:29;4.65;;;4.07;;
29242;SDS011;21110;48.036;15.780;2023-02-08T09:30:55;4.32;;;4.03;;
29242;SDS011;21110;48.036;15.780;2023-02-08T09:33:21;4.00;;;3.70;;
29242;SDS011;21110;48.036;15.780;2023-02-08T09:35:46;3.53;;;3.33;;
29242;SDS011;21110;48.036;15.780;2023-02-08T09:38:12;4.30;;;3.90;;
29242;SDS011;21110;48.036;15.780;2023-02-08T09:40:44;4.05;;;3.75;;
29242;SDS011;21110;48.036;15.780;2023-02-08T09:43:36;4.60;;;4.20;;
29242;SDS011;21110;48.036;15.780;2023-02-08T09:46:10;4.30;;;4.00;;
29242;SDS011;21110;48.036;15.780;2023-02-08T09:48:41;4.40;;;4.00;;
29242;SDS011;21110;48.036;15.780;2023-02-08T09:51:24;4.15;;;3.80;;
29242;SDS011;21110;48.036;15.780;2023-02-08T09:54:00;4.13;;;3.83;;
29242;SDS011;21110;48.036;15.780;2023-02-08T09:56:33;3.95;;;3.60;;
29242;SDS011;21110;48.036;15.780;2023-02-08T09:59:01;4.55;;;4.15;;
29242;SDS011;21110;48.036;15.780;2023-02-08T10:01:28;4.25;;;3.95;;
29242;SDS011;21110;48.036;15.780;2023-02-08T10:04:32;4.40;;;4.00;;
29242;SDS011;21110;48.036;15.780;2023-02-08T10:06:53;4.47;;;4.07;;
29242;SDS011;21110;48.036;15.780;2023-02-08T10:09:20;4.18;;;3.88;;
29242;SDS011;21110;48.036;15.780;2023-02-08T10:11:56;4.03;;;3.80;;
29242;SDS011;21110;48.036;15.780;2023-02-08T10:25:30;4.38;;;4.03;;
29242;SDS011;21110;48.036;15.780;2023-02-08T10:33:39;4.10;;;3.80;;
29242;SDS011;21110;48.036;15.780;2023-02-08T10:36:13;4.15;;;3.60;;
29242;SDS011;21110;48.036;15.780;2023-02-08T10:38:43;4.20;;;3.90;;
29242;SDS011;21110;48.036;15.780;2023-02-08T10:41:13;3.92;;;3.63;;
29242;SDS011;21110;48.036;15.780;2023-02-08T10:43:44;4.30;;;4.00;;
29242;SDS011;21110;48.036;15.780;2023-02-08T10:46:27;4.20;;;3.90;;
29242;SDS011;21110;48.036;15.780;2023-02-08T10:49:10;3.70;;;3.50;;
29242;SDS011;21110;48.036;15.780;2023-02-08T10:51:44;3.92;;;3.63;;
29242;SDS011;21110;48.036;15.780;2023-02-08T10:54:11;4.25;;;3.85;;
29242;SDS011;21110;48.036;15.780;2023-02-08T10:59:17;3.75;;;3.50;;
29242;SDS011;21110;48.036;15.780;2023-02-08T11:01:46;3.88;;;3.60;;
29242;SDS011;21110;48.036;15.780;2023-02-08T11:04:13;3.60;;;3.30;;
29242;SDS011;21110;48.036;15.780;2023-02-08T11:06:41;3.80;;;3.50;;
29242;SDS011;21110;48.036;15.780;2023-02-08T11:09:26;3.38;;;3.17;;
29242;SDS011;21110;48.036;15.780;2023-02-08T11:11:59;3.67;;;3.45;;
29242;SDS011;21110;48.036;15.780;2023-02-08T11:14:28;3.50;;;3.30;;
29242;SDS011;21110;48.036;15.780;2023-02-08T11:17:04;3.80;;;3.60;;
29242;SDS011;21110;48.036;15.780;2023-02-08T11:19:47;3.63;;;3.42;;
29242;SDS011;21110;48.036;15.780;2023-02-08T11:22:15;3.50;;;3.20;;
29242;SDS011;21110;48.036;15.780;2023-02-08T11:24:43;3.17;;;2.97;;
29242;SDS011;21110;48.036;15.780;2023-02-08T11:32:37;3.63;;;3.42;;
29242;SDS011;21110;48.036;15.780;2023-02-08T11:35:25;3.80;;;3.60;;
29242;SDS011;21110;48.036;15.780;2023-02-08T11:37:51;3.88;;;3.60;;
29242;SDS011;21110;48.036;15.780;2023-02-08T11:40:22;3.58;;;3.33;;
29242;SDS011;21110;48.036;15.780;2023-02-08T11:43:00;3.60;;;3.40;;
29242;SDS011;21110;48.036;15.780;2023-02-08T11:45:28;3.80;;;3.60;;
29242;SDS011;21110;48.036;15.780;2023-02-08T11:47:59;3.60;;;3.30;;
29242;SDS011;21110;48.036;15.780;2023-02-08T11:50:35;4.10;;;3.80;;
29242;SDS011;21110;48.036;15.780;2023-02-08T11:53:22;3.65;;;3.45;;
29242;SDS011;21110;48.036;15.780;2023-02-08T11:58:41;3.40;;;3.17;;
29242;SDS011;21110;48.036;15.780;2023-02-08T12:01:19;3.58;;;3.38;;
29242;SDS011;21110;48.036;15.780;2023-02-08T12:03:46;3.83;;;3.55;;
29242;SDS011;21110;48.036;15.780;2023-02-08T12:11:57;3.53;;;3.33;;
29242;SDS011;21110;48.036;15.780;2023-02-08T12:14:47;4.03;;;3.40;;
29242;SDS011;21110;48.036;15.780;2023-02-08T12:22:28;3.50;;;3.30;;
29242;SDS011;21110;48.036;15.780;2023-02-08T12:54:59;3.30;;;3.10;;
29242;SDS011;21110;48.036;15.780;2023-02-08T12:57:29;3.30;;;3.10;;
29242;SDS011;21110;48.036;15.780;2023-02-08T12:59:58;3.20;;;3.00;;
29242;SDS011;21110;48.036;15.780;2023-02-08T13:02:30;3.25;;;3.05;;
29242;SDS011;21110;48.036;15.780;2023-02-08T13:05:02;3.10;;;2.90;;
29242;SDS011;21110;48.036;15.780;2023-02-08T13:12:51;3.13;;;2.92;;
29242;SDS011;21110;48.036;15.780;2023-02-08T13:15:22;3.22;;;3.03;;
29242;SDS011;21110;48.036;15.780;2023-02-08T13:18:02;3.55;;;3.35;;
29242;SDS011;21110;48.036;15.780;2023-02-08T13:21:03;3.30;;;3.10;;
29242;SDS011;21110;48.036;15.780;2023-02-08T13:26:05;3.13;;;3.00;;
29242;SDS011;21110;48.036;15.780;2023-02-08T13:28:58;3.42;;;3.22;;
29242;SDS011;21110;48.036;15.780;2023-02-08T13:31:41;3.33;;;3.13;;
29242;SDS011;21110;48.036;15.780;2023-02-08T13:34:17;3.40;;;3.20;;
29242;SDS011;21110;48.036;15.780;2023-02-08T13:37:05;3.30;;;3.10;;
29242;SDS011;21110;48.036;15.780;2023-02-08T13:39:42;3.40;;;3.20;;
29242;SDS011;21110;48.036;15.780;2023-02-08T13:44:53;3.10;;;2.90;;
29242;SDS011;21110;48.036;15.780;2023-02-08T13:47:24;3.20;;;3.00;;
29242;SDS011;21110;48.036;15.780;2023-02-08T13:49:57;3.40;;;3.10;;
29242;SDS011;21110;48.036;15.780;2023-02-08T13:57:54;3.50;;;3.30;;
29242;SDS011;21110;48.036;15.780;2023-02-08T14:03:23;2.88;;;2.78;;
29242;SDS011;21110;48.036;15.780;2023-02-08T14:05:59;3.40;;;3.20;;
29242;SDS011;21110;48.036;15.780;2023-02-08T14:13:39;3.20;;;3.00;;
29242;SDS011;21110;48.036;15.780;2023-02-08T14:16:33;3.28;;;3.08;;
29242;SDS011;21110;48.036;15.780;2023-02-08T14:21:59;3.45;;;3.25;;
29242;SDS011;21110;48.036;15.780;2023-02-08T14:24:47;3.30;;;3.10;;
29242;SDS011;21110;48.036;15.780;2023-02-08T14:30:06;3.20;;;3.00;;
29242;SDS011;21110;48.036;15.780;2023-02-08T14:32:42;3.00;;;2.80;;
29242;SDS011;21110;48.036;15.780;2023-02-08T14:37:38;3.20;;;3.00;;
29242;SDS011;21110;48.036;15.780;2023-02-08T14:43:26;3.22;;;3.03;;
29242;SDS011;21110;48.036;15.780;2023-02-08T14:45:48;3.38;;;3.17;;
29242;SDS011;21110;48.036;15.780;2023-02-08T14:53:32;3.38;;;3.17;;
29242;SDS011;21110;48.036;15.780;2023-02-08T14:58:35;3.10;;;2.90;;
29242;SDS011;21110;48.036;15.780;2023-02-08T15:01:11;3.00;;;2.80;;
29242;SDS011;21110;48.036;15.780;2023-02-08T15:03:41;3.30;;;3.10;;
29242;SDS011;21110;48.036;15.780;2023-02-08T15:09:02;3.03;;;2.83;;
29242;SDS011;21110;48.036;15.780;2023-02-08T15:11:42;3.67;;;3.30;;
29242;SDS011;21110;48.036;15.780;2023-02-08T15:14:21;3.15;;;2.97;;
29242;SDS011;21110;48.036;15.780;2023-02-08T15:16:47;3.25;;;3.05;;
29242;SDS011;21110;48.036;15.780;2023-02-08T15:19:21;3.20;;;3.00;;
29242;SDS011;21110;48.036;15.780;2023-02-08T15:21:50;3.03;;;2.83;;
29242;SDS011;21110;48.036;15.780;2023-02-08T15:24:17;3.17;;;2.97;;
29242;SDS011;21110;48.036;15.780;2023-02-08T15:26:51;3.50;;;3.28;;
29242;SDS011;21110;48.036;15.780;2023-02-08T15:31:45;3.40;;;3.17;;
29242;SDS011;21110;48.036;15.780;2023-02-08T15:34:12;3.33;;;3.13;;
29242;SDS011;21110;48.036;15.780;2023-02-08T15:36:38;3.25;;;2.97;;
29242;SDS011;21110;48.036;15.780;2023-02-08T15:39:24;3.30;;;3.10;;
29242;SDS011;21110;48.036;15.780;2023-02-08T15:41:54;3.80;;;3.50;;
29242;SDS011;21110;48.036;15.780;2023-02-08T15:44:22;3.10;;;2.90;;
29242;SDS011;21110;48.036;15.780;2023-02-08T15:46:51;3.63;;;3.43;;
29242;SDS011;21110;48.036;15.780;2023-02-08T15:49:36;3.40;;;3.20;;
29242;SDS011;21110;48.036;15.780;2023-02-08T15:52:07;3.30;;;3.10;;
29242;SDS011;21110;48.036;15.780;2023-02-08T15:54:41;3.20;;;3.00;;
29242;SDS011;21110;48.036;15.780;2023-02-08T15:57:08;3.53;;;3.30;;
29242;SDS011;21110;48.036;15.780;2023-02-08T15:59:49;3.70;;;3.50;;
29242;SDS011;21110;48.036;15.780;2023-02-08T16:02:19;3.15;;;2.95;;
29242;SDS011;21110;48.036;15.780;2023-02-08T16:04:46;3.50;;;3.30;;
29242;SDS011;21110;48.036;15.780;2023-02-08T16:07:22;3.28;;;3.08;;
29242;SDS011;21110;48.036;15.780;2023-02-08T16:10:00;3.33;;;3.13;;
29242;SDS011;21110;48.036;15.780;2023-02-08T16:12:27;3.35;;;3.15;;
29242;SDS011;21110;48.036;15.780;2023-02-08T16:14:53;3.78;;;3.58;;
29242;SDS011;21110;48.036;15.780;2023-02-08T16:17:31;3.20;;;3.00;;
29242;SDS011;21110;48.036;15.780;2023-02-08T16:20:26;3.60;;;3.40;;
29242;SDS011;21110;48.036;15.780;2023-02-08T16:22:54;3.97;;;3.67;;
29242;SDS011;21110;48.036;15.780;2023-02-08T16:25:32;3.38;;;3.17;;
29242;SDS011;21110;48.036;15.780;2023-02-08T16:27:58;3.58;;;3.30;;
29242;SDS011;21110;48.036;15.780;2023-02-08T16:30:24;3.90;;;3.65;;
29242;SDS011;21110;48.036;15.780;2023-02-08T16:32:50;3.72;;;3.50;;
29242;SDS011;21110;48.036;15.780;2023-02-08T16:35:23;3.40;;;3.20;;
29242;SDS011;21110;48.036;15.780;2023-02-08T16:37:55;3.70;;;3.45;;
29242;SDS011;21110;48.036;15.780;2023-02-08T16:48:39;3.58;;;3.38;;
29242;SDS011;21110;48.036;15.780;2023-02-08T16:51:16;3.50;;;3.30;;
29242;SDS011;21110;48.036;15.780;2023-02-08T16:53:46;3.75;;;3.45;;
29242;SDS011;21110;48.036;15.780;2023-02-08T16:56:12;4.25;;;3.95;;
29242;SDS011;21110;48.036;15.780;2023-02-08T16:58:38;3.88;;;3.58;;
29242;SDS011;21110;48.036;15.780;2023-02-08T17:01:04;3.60;;;3.40;;
29242;SDS011;21110;48.036;15.780;2023-02-08T17:03:30;3.75;;;3.53;;
29242;SDS011;21110;48.036;15.780;2023-02-08T17:05:56;3.90;;;3.60;;
29242;SDS011;21110;48.036;15.780;2023-02-08T17:08:24;4.00;;;3.70;;
29242;SDS011;21110;48.036;15.780;2023-02-08T17:10:50;4.15;;;3.85;;
29242;SDS011;21110;48.036;15.780;2023-02-08T17:13:22;4.00;;;3.70;;
29242;SDS011;21110;48.036;15.780;2023-02-08T17:15:48;3.75;;;3.55;;
29242;SDS011;21110;48.036;15.780;2023-02-08T17:18:15;3.55;;;3.35;;
29242;SDS011;21110;48.036;15.780;2023-02-08T17:20:41;3.90;;;3.70;;
29242;SDS011;21110;48.036;15.780;2023-02-08T17:23:07;4.03;;;3.72;;
29242;SDS011;21110;48.036;15.780;2023-02-08T17:25:34;4.20;;;3.90;;
29242;SDS011;21110;48.036;15.780;2023-02-08T17:28:00;3.90;;;3.60;;
29242;SDS011;21110;48.036;15.780;2023-02-08T17:30:33;4.00;;;3.70;;
29242;SDS011;21110;48.036;15.780;2023-02-08T17:33:01;4.35;;;4.03;;
29242;SDS011;21110;48.036;15.780;2023-02-08T17:35:41;3.70;;;3.50;;
29242;SDS011;21110;48.036;15.780;2023-02-08T17:38:08;3.70;;;3.50;;
29242;SDS011;21110;48.036;15.780;2023-02-08T17:40:35;3.60;;;3.38;;
29242;SDS011;21110;48.036;15.780;2023-02-08T17:43:01;3.90;;;3.60;;
29242;SDS011;21110;48.036;15.780;2023-02-08T17:45:28;4.10;;;3.80;;